Airfield :
LOGIN :

Register | Disclaimer

   EN    FR    IT 

 










Legend :    VFR   Marginal VFR   IFR   Intensive IFR   Very Intensive IFR
Visi :
Ceiling :
>= 8 km
>= 3000ft
5 to 8 km
1000 to 3000 ft
1500m to 5 km
500 to 1000 ft
800 to 1500m
200 to 500 ft
< 800m
< 200 ft
Symbols :   Thunderstorms  Fog  Heavy snow  Heavy precipitations  Wind > 20 kt
SIGMETs :     Misc.  Thunderstorms  Icing  Turbulence  Mountain Waves  Volcanic Ashes






- Airport Elevation : 416 ft
- IATA code : OVD


LEAS - Asturias

CURRENT METAR :
  • 231830Z 32006KT 280V010 9999 SCT014 14/11 Q1021 NOSIG

EXPIRED METARs :
  • 231800Z 32005KT 270V010 9999 SCT014 14/11 Q1021 NOSIG
  • 231730Z 30008KT 280V360 9999 SCT014 15/11 Q1021 NOSIG
  • 231700Z 31007KT 270V350 9999 SCT014 15/12 Q1021 NOSIG
  • 231630Z 32008KT 280V020 9999 SCT015 15/11 Q1021 NOSIG
  • 231600Z 32008KT 280V010 9999 SCT014 15/11 Q1021 NOSIG
  • 231530Z 32009KT 290V010 9999 SCT014 15/12 Q1021 NOSIG
  • 231500Z 32010KT 280V360 9999 FEW011 15/12 Q1021 NOSIG
  • 231430Z 32008KT 280V010 9999 FEW014 15/12 Q1021 NOSIG
  • 231400Z 32010KT 290V360 9999 FEW008 SCT035 15/12 Q1022 NOSIG

TAF AMD TAF LEAS
Valid from the 23 at 15:00 until the 24 at 15:00 UTC


231453Z 2315/2415 31009KT 9999 FEW025 SCT050 TX18/2412Z TN10/2401Z
PROB30
TEMPO 2400/2406 23010KT
PROB30
TEMPO 2316/2322 BKN010
BECMG 2407/2410 06010KT



MET'MAP, your aeronautical weather chart ! - Copyright ORBIFLY December 2007 - Disclaimer

ORBIFLY MET'MAP TEAM :

Programming & Development : Alexandra Zaïnal
Original concept : Baudouin d'Aumeries
Technical & hardware support : Manuel Goepfert
Assistance : Marc-Olivier Méhu




SOURCES & CREDITS :

   NOAA